createdAt,value
2023-08-22T00:00:19.512Z,2.00
2023-08-22T00:02:43.795Z,2.30
2023-08-22T00:05:08.917Z,2.67
2023-08-22T00:07:32.606Z,2.50
2023-08-22T00:09:57.749Z,2.55
2023-08-22T00:12:21.520Z,2.53
2023-08-22T00:14:45.134Z,2.40
2023-08-22T00:17:09.707Z,2.38
2023-08-22T00:19:33.296Z,2.60
2023-08-22T00:21:56.946Z,2.30
2023-08-22T00:24:20.573Z,2.53
2023-08-22T00:26:45.592Z,2.42
2023-08-22T00:29:09.171Z,2.60
2023-08-22T00:31:32.799Z,2.38
2023-08-22T00:33:56.376Z,2.72
2023-08-22T00:36:20.062Z,2.42
2023-08-22T00:38:43.648Z,2.25
2023-08-22T00:41:07.324Z,2.63
2023-08-22T00:43:32.741Z,2.35
2023-08-22T00:45:56.466Z,2.28
2023-08-22T00:48:20.134Z,2.35
2023-08-22T00:50:44.548Z,2.20
2023-08-22T00:53:08.394Z,2.08
2023-08-22T00:55:32.295Z,2.28
2023-08-22T00:57:56.004Z,2.47
2023-08-22T01:00:21.181Z,2.50
2023-08-22T01:02:45.169Z,2.50
2023-08-22T01:05:10.757Z,2.42
2023-08-22T01:07:39.837Z,2.25
2023-08-22T01:10:10.692Z,2.60
2023-08-22T01:12:43.630Z,2.20
2023-08-22T01:15:15.254Z,2.33
2023-08-22T01:17:42.789Z,2.40
2023-08-22T01:20:13.093Z,2.05
2023-08-22T01:22:38.619Z,2.42
2023-08-22T01:25:05.445Z,2.30
2023-08-22T01:27:38.445Z,2.67
2023-08-22T01:30:12.938Z,2.53
2023-08-22T01:32:41.883Z,2.30
2023-08-22T01:35:12.296Z,2.42
2023-08-22T01:37:40.343Z,2.25
2023-08-22T01:40:08.942Z,2.47
2023-08-22T01:42:33.132Z,2.17
2023-08-22T01:44:56.755Z,2.40
2023-08-22T01:47:20.465Z,2.58
2023-08-22T01:49:44.069Z,2.00
2023-08-22T01:52:07.918Z,2.40
2023-08-22T01:54:32.936Z,2.13
2023-08-22T01:56:56.608Z,2.55
2023-08-22T01:59:20.403Z,2.28
2023-08-22T02:01:44.788Z,2.45
2023-08-22T02:04:08.426Z,2.35
2023-08-22T02:06:32.269Z,2.20
2023-08-22T02:08:55.881Z,1.98
2023-08-22T02:11:21.227Z,2.03
2023-08-22T02:13:45.890Z,2.15
2023-08-22T02:16:09.604Z,2.33
2023-08-22T02:18:33.825Z,2.25
2023-08-22T02:21:00.853Z,2.03
2023-08-22T02:23:24.656Z,2.30
2023-08-22T02:25:49.280Z,2.13
2023-08-22T02:28:14.484Z,2.38
2023-08-22T02:30:38.426Z,2.35
2023-08-22T02:33:02.153Z,1.95
2023-08-22T02:35:26.226Z,2.05
2023-08-22T02:37:49.813Z,2.33
2023-08-22T02:40:13.943Z,2.30
2023-08-22T02:42:37.602Z,2.38
2023-08-22T02:45:02.722Z,2.20
2023-08-22T02:47:26.502Z,2.20
2023-08-22T02:49:50.369Z,2.22
2023-08-22T02:52:14.205Z,2.35
2023-08-22T02:54:37.864Z,1.98
2023-08-22T02:57:03.969Z,2.15
2023-08-22T02:59:27.598Z,2.05
2023-08-22T03:01:52.624Z,2.40
2023-08-22T03:04:16.880Z,2.20
2023-08-22T03:06:41.047Z,2.50
2023-08-22T03:09:05.399Z,2.13
2023-08-22T03:11:28.992Z,2.40
2023-08-22T03:13:53.426Z,2.20
2023-08-22T03:16:17.125Z,2.15
2023-08-22T03:18:44.905Z,2.25
2023-08-22T03:21:10.657Z,2.10
2023-08-22T03:23:34.420Z,2.15
2023-08-22T03:26:00.131Z,2.17
2023-08-22T03:28:24.660Z,2.28
2023-08-22T03:30:48.296Z,2.20
2023-08-22T03:33:12.194Z,2.35
2023-08-22T03:35:37.276Z,2.10
2023-08-22T03:38:01.006Z,2.38
2023-08-22T03:40:25.019Z,1.95
2023-08-22T03:42:48.737Z,2.10
2023-08-22T03:45:12.687Z,1.90
2023-08-22T03:47:36.907Z,2.25
2023-08-22T03:50:01.557Z,2.17
2023-08-22T03:52:28.169Z,2.28
2023-08-22T03:54:52.439Z,2.70
2023-08-22T03:57:16.570Z,2.45
2023-08-22T03:59:40.206Z,1.98
2023-08-22T04:02:03.982Z,1.98
2023-08-22T04:04:27.613Z,2.00
2023-08-22T04:06:51.331Z,2.45
2023-08-22T04:09:16.291Z,2.28
2023-08-22T04:11:41.239Z,2.38
2023-08-22T04:14:04.883Z,2.45
2023-08-22T04:16:28.672Z,2.05
2023-08-22T04:18:52.307Z,2.78
2023-08-22T04:21:16.004Z,2.78
2023-08-22T04:23:39.836Z,2.40
2023-08-22T04:26:04.989Z,2.60
2023-08-22T04:28:29.041Z,2.13
2023-08-22T04:30:53.277Z,2.40
2023-08-22T04:33:17.017Z,2.10
2023-08-22T04:35:40.869Z,2.30
2023-08-22T04:38:05.112Z,2.00
2023-08-22T04:40:29.875Z,2.30
2023-08-22T04:43:05.276Z,2.40
2023-08-22T04:45:29.972Z,2.17
2023-08-22T04:47:53.701Z,2.22
2023-08-22T04:50:18.376Z,2.22
2023-08-22T04:52:42.187Z,2.40
2023-08-22T04:55:06.819Z,2.10
2023-08-22T04:57:30.851Z,2.10
2023-08-22T04:59:57.319Z,2.13
2023-08-22T05:02:22.025Z,2.53
2023-08-22T05:04:46.323Z,2.30
2023-08-22T05:07:10.158Z,2.30
2023-08-22T05:09:33.874Z,2.47
2023-08-22T05:11:57.547Z,2.15
2023-08-22T05:14:23.070Z,2.05
2023-08-22T05:16:48.239Z,2.50
2023-08-22T05:19:12.133Z,2.33
2023-08-22T05:21:35.966Z,2.05
2023-08-22T05:23:59.669Z,2.50
2023-08-22T05:26:23.350Z,1.98
2023-08-22T05:28:47.790Z,2.50
2023-08-22T05:31:11.465Z,2.25
2023-08-22T05:33:36.879Z,2.35
2023-08-22T05:36:00.465Z,1.90
2023-08-22T05:38:24.216Z,2.17
2023-08-22T05:40:47.824Z,2.45
2023-08-22T05:43:11.526Z,1.85
2023-08-22T05:45:35.156Z,2.92
2023-08-22T05:48:00.385Z,2.08
2023-08-22T05:50:25.660Z,2.03
2023-08-22T05:52:49.378Z,2.35
2023-08-22T05:55:13.306Z,2.13
2023-08-22T05:57:38.562Z,2.10
2023-08-22T06:00:04.305Z,1.90
2023-08-22T06:02:40.632Z,2.20
2023-08-22T06:05:04.439Z,2.00
2023-08-22T06:07:29.482Z,2.08
2023-08-22T06:09:53.134Z,2.20
2023-08-22T06:12:17.567Z,2.22
2023-08-22T06:14:41.322Z,1.98
2023-08-22T06:17:06.449Z,2.22
2023-08-22T06:19:30.143Z,2.00
2023-08-22T06:21:53.877Z,2.20
2023-08-22T06:24:20.023Z,2.17
2023-08-22T06:26:43.819Z,1.83
2023-08-22T06:29:08.317Z,1.80
2023-08-22T06:31:32.562Z,1.75
2023-08-22T06:33:56.508Z,1.77
2023-08-22T06:36:20.386Z,1.60
2023-08-22T06:38:44.645Z,1.88
2023-08-22T06:41:09.991Z,1.85
2023-08-22T06:43:33.892Z,2.10
2023-08-22T06:45:59.397Z,1.83
2023-08-22T06:48:38.446Z,1.95
2023-08-22T06:51:05.292Z,2.13
2023-08-22T06:53:28.947Z,1.65
2023-08-22T06:55:52.634Z,1.77
2023-08-22T06:58:18.212Z,1.80
2023-08-22T07:00:42.231Z,1.85
2023-08-22T07:03:07.450Z,1.60
2023-08-22T07:05:33.452Z,1.75
2023-08-22T07:07:58.494Z,2.08
2023-08-22T07:10:22.335Z,1.90
2023-08-22T07:12:45.966Z,1.80
2023-08-22T07:15:12.119Z,1.70
2023-08-22T07:17:36.408Z,1.85
2023-08-22T07:20:00.297Z,1.83
2023-08-22T07:22:24.803Z,2.03
2023-08-22T07:24:48.466Z,1.73
2023-08-22T07:27:12.906Z,2.00
2023-08-22T07:29:36.573Z,2.13
2023-08-22T07:32:01.552Z,2.00
2023-08-22T07:34:25.240Z,1.88
2023-08-22T07:36:48.814Z,1.73
2023-08-22T07:39:12.496Z,1.80
2023-08-22T07:41:36.110Z,1.60
2023-08-22T07:43:59.784Z,1.70
2023-08-22T07:46:23.449Z,1.55
2023-08-22T07:48:48.574Z,1.48
2023-08-22T07:51:12.215Z,1.60
2023-08-22T07:53:35.934Z,1.90
2023-08-22T07:55:59.587Z,1.60
2023-08-22T07:58:23.327Z,1.80
2023-08-22T08:00:50.008Z,1.73
2023-08-22T08:03:13.784Z,1.75
2023-08-22T08:05:38.847Z,1.63
2023-08-22T08:08:02.496Z,1.50
2023-08-22T08:10:26.150Z,2.25
2023-08-22T08:12:49.836Z,1.70
2023-08-22T08:15:13.444Z,1.27
2023-08-22T08:17:37.290Z,1.52
2023-08-22T08:20:00.959Z,1.80
2023-08-22T08:22:26.028Z,1.95
2023-08-22T08:24:49.605Z,1.33
2023-08-22T08:27:13.239Z,1.40
2023-08-22T08:29:36.873Z,1.48
2023-08-22T08:32:00.773Z,1.42
2023-08-22T08:34:24.509Z,1.42
2023-08-22T08:36:48.192Z,1.95
2023-08-22T08:39:13.151Z,1.70
2023-08-22T08:41:40.219Z,1.60
2023-08-22T08:44:04.983Z,1.60
2023-08-22T08:46:30.551Z,1.52
2023-08-22T08:48:55.636Z,1.70
2023-08-22T08:51:19.318Z,1.85
2023-08-22T08:53:44.245Z,1.50
2023-08-22T08:56:11.543Z,1.70
2023-08-22T08:58:40.582Z,1.80
2023-08-22T09:01:06.320Z,1.90
2023-08-22T09:03:31.366Z,1.80
2023-08-22T09:05:55.148Z,1.67
2023-08-22T09:08:20.903Z,1.52
2023-08-22T09:10:44.791Z,1.67
2023-08-22T09:13:09.836Z,1.73
2023-08-22T09:15:35.150Z,1.70
2023-08-22T09:18:01.808Z,1.40
2023-08-22T09:20:25.636Z,1.40
2023-08-22T09:22:49.827Z,1.45
2023-08-22T09:25:13.528Z,1.20
2023-08-22T09:27:37.166Z,1.30
2023-08-22T09:30:05.724Z,1.75
2023-08-22T09:32:29.704Z,1.40
2023-08-22T09:34:58.071Z,1.60
2023-08-22T09:37:33.071Z,1.55
2023-08-22T09:39:57.328Z,1.67
2023-08-22T09:42:21.004Z,1.38
2023-08-22T09:44:45.176Z,1.48
2023-08-22T09:47:10.721Z,1.60
2023-08-22T09:49:35.817Z,1.92
2023-08-22T09:51:59.960Z,1.90
2023-08-22T09:54:25.872Z,1.50
2023-08-22T09:56:49.819Z,1.60
2023-08-22T09:59:15.515Z,1.50
2023-08-22T10:01:41.252Z,1.75
2023-08-22T10:04:07.491Z,1.45
2023-08-22T10:06:45.740Z,1.42
2023-08-22T10:09:12.978Z,2.03
2023-08-22T10:11:41.751Z,1.50
2023-08-22T10:14:06.338Z,1.60
2023-08-22T10:16:32.265Z,1.80
2023-08-22T10:19:03.170Z,1.60
2023-08-22T10:21:28.480Z,1.33
2023-08-22T10:23:59.653Z,1.50
2023-08-22T10:26:25.124Z,1.60
2023-08-22T10:29:15.454Z,1.55
2023-08-22T10:32:25.035Z,1.63
2023-08-22T10:35:28.520Z,1.52
2023-08-22T10:37:54.965Z,1.58
2023-08-22T10:40:35.093Z,1.60
2023-08-22T10:43:14.901Z,1.40
2023-08-22T10:45:53.975Z,1.70
2023-08-22T10:48:20.492Z,1.50
2023-08-22T10:50:45.649Z,1.23
2023-08-22T10:53:28.857Z,1.77
2023-08-22T10:55:53.586Z,1.52
2023-08-22T10:58:37.664Z,1.50
2023-08-22T11:01:01.665Z,1.48
2023-08-22T11:03:25.387Z,1.70
2023-08-22T11:05:49.802Z,1.33
2023-08-22T11:08:13.448Z,1.50
2023-08-22T11:10:40.487Z,1.30
2023-08-22T11:13:10.791Z,1.30
2023-08-22T11:15:34.719Z,1.38
2023-08-22T11:17:58.412Z,1.38
2023-08-22T11:20:23.202Z,1.45
2023-08-22T11:22:47.758Z,1.67
2023-08-22T11:25:13.521Z,1.40
2023-08-22T11:27:41.563Z,1.42
2023-08-22T11:30:06.084Z,1.63
2023-08-22T11:32:32.549Z,1.40
2023-08-22T11:35:00.484Z,1.25
2023-08-22T11:37:24.878Z,1.20
2023-08-22T11:39:49.121Z,1.48
2023-08-22T11:42:12.773Z,1.40
2023-08-22T11:44:54.871Z,1.33
2023-08-22T11:47:18.524Z,1.70
2023-08-22T11:49:45.224Z,1.40
2023-08-22T11:52:10.930Z,1.30
2023-08-22T11:54:34.624Z,1.20
2023-08-22T11:57:02.236Z,1.20
2023-08-22T11:59:25.866Z,1.45
2023-08-22T12:01:51.198Z,1.20
2023-08-22T12:04:14.905Z,1.40
2023-08-22T12:06:38.646Z,1.40
2023-08-22T12:09:02.637Z,1.55
2023-08-22T12:11:27.793Z,1.60
2023-08-22T12:13:51.550Z,1.40
2023-08-22T12:16:15.284Z,1.35
2023-08-22T12:18:40.858Z,1.40
2023-08-22T12:21:05.073Z,1.42
2023-08-22T12:23:28.647Z,1.52
2023-08-22T12:25:52.631Z,1.40
2023-08-22T12:28:16.612Z,1.42
2023-08-22T12:30:42.288Z,1.70
2023-08-22T12:33:09.199Z,1.73
2023-08-22T12:35:35.355Z,1.58
2023-08-22T12:37:58.978Z,1.60
2023-08-22T12:40:22.844Z,1.38
2023-08-22T12:42:47.095Z,1.63
2023-08-22T12:45:14.094Z,1.42
2023-08-22T12:47:39.774Z,1.83
2023-08-22T12:50:03.445Z,1.60
2023-08-22T12:52:28.416Z,1.80
2023-08-22T12:54:52.104Z,1.52
2023-08-22T12:57:15.852Z,1.60
2023-08-22T12:59:39.862Z,1.60
2023-08-22T13:02:03.591Z,1.58
2023-08-22T13:04:27.373Z,1.77
2023-08-22T13:06:51.063Z,1.60
2023-08-22T13:09:16.094Z,1.90
2023-08-22T13:11:43.842Z,1.67
2023-08-22T13:14:08.548Z,1.70
2023-08-22T13:16:32.258Z,2.00
2023-08-22T13:18:55.994Z,1.60
2023-08-22T13:21:19.595Z,1.50
2023-08-22T13:23:43.254Z,1.67
2023-08-22T13:26:08.496Z,1.80
2023-08-22T13:28:32.132Z,1.98
2023-08-22T13:30:55.779Z,1.80
2023-08-22T13:33:19.427Z,1.70
2023-08-22T13:35:43.018Z,1.90
2023-08-22T13:38:06.900Z,1.60
2023-08-22T13:40:31.649Z,1.92
2023-08-22T13:42:56.821Z,2.03
2023-08-22T13:45:20.676Z,2.15
2023-08-22T13:47:44.712Z,1.90
2023-08-22T13:50:10.297Z,1.83
2023-08-22T13:52:33.982Z,1.80
2023-08-22T13:54:57.855Z,2.03
2023-08-22T13:57:21.473Z,2.03
2023-08-22T13:59:47.619Z,2.00
2023-08-22T14:02:11.311Z,1.80
2023-08-22T14:04:34.919Z,2.03
2023-08-22T14:06:58.611Z,2.08
2023-08-22T14:11:48.730Z,2.10
2023-08-22T14:14:13.470Z,3.38
2023-08-22T14:16:38.527Z,2.38
2023-08-22T14:19:02.167Z,3.08
2023-08-22T14:21:33.425Z,1.77
2023-08-22T14:24:10.341Z,2.15
2023-08-22T14:26:33.971Z,1.90
2023-08-22T14:28:57.728Z,2.25
2023-08-22T14:31:21.356Z,1.85
2023-08-22T14:33:46.406Z,2.10
2023-08-22T14:36:11.700Z,1.92
2023-08-22T14:38:37.066Z,2.10
2023-08-22T14:41:01.410Z,1.88
2023-08-22T14:43:27.748Z,2.30
2023-08-22T14:45:51.461Z,1.83
2023-08-22T14:48:15.162Z,1.92
2023-08-22T14:50:44.165Z,1.80
2023-08-22T14:53:07.843Z,1.85
2023-08-22T14:55:31.409Z,2.10
2023-08-22T14:57:55.332Z,1.98
2023-08-22T15:00:20.815Z,1.80
2023-08-22T15:02:44.533Z,1.70
2023-08-22T15:05:09.005Z,1.60
2023-08-22T15:07:34.033Z,1.73
2023-08-22T15:09:58.550Z,2.08
2023-08-22T15:12:22.230Z,1.85
2023-08-22T15:14:45.870Z,1.83
2023-08-22T15:17:09.524Z,2.28
2023-08-22T15:19:33.078Z,2.10
2023-08-22T15:21:56.743Z,2.08
2023-08-22T15:24:22.171Z,1.90
2023-08-22T15:26:46.168Z,1.85
2023-08-22T15:29:09.734Z,2.40
2023-08-22T15:31:33.473Z,2.00
2023-08-22T15:33:57.095Z,1.98
2023-08-22T15:36:20.773Z,2.30
2023-08-22T15:38:44.398Z,2.40
2023-08-22T15:41:11.741Z,2.38
2023-08-22T15:43:35.380Z,2.60
2023-08-22T15:45:59.041Z,2.67
2023-08-22T15:48:22.632Z,9.80
2023-08-22T15:50:47.330Z,21.73
2023-08-22T15:53:11.037Z,13.82
2023-08-22T15:55:34.703Z,39.75
2023-08-22T15:58:00.437Z,31.67
2023-08-22T16:00:24.520Z,21.80
2023-08-22T16:02:48.466Z,10.73
2023-08-22T16:05:12.116Z,3.35
2023-08-22T16:07:35.716Z,3.00
2023-08-22T16:09:59.456Z,2.67
2023-08-22T16:12:23.083Z,2.42
2023-08-22T16:14:48.293Z,1.98
2023-08-22T16:17:12.591Z,2.30
2023-08-22T16:19:36.310Z,2.03
2023-08-22T16:21:59.891Z,2.40
2023-08-22T16:24:23.655Z,2.30
2023-08-22T16:26:48.962Z,1.67
2023-08-22T16:29:12.591Z,1.83
2023-08-22T16:31:37.594Z,2.08
2023-08-22T16:34:04.364Z,1.88
2023-08-22T16:36:28.050Z,2.00
2023-08-22T16:38:51.722Z,2.20
2023-08-22T16:41:15.379Z,2.10
2023-08-22T16:43:39.038Z,1.85
2023-08-22T16:46:03.054Z,1.88
2023-08-22T16:48:28.200Z,1.80
2023-08-22T16:50:51.973Z,1.70
2023-08-22T16:53:16.488Z,2.22
2023-08-22T16:55:40.992Z,1.90
2023-08-22T16:58:04.817Z,1.80
2023-08-22T17:00:28.481Z,2.20
2023-08-22T17:02:52.195Z,2.40
2023-08-22T17:05:17.363Z,2.00
2023-08-22T17:07:41.296Z,2.10
2023-08-22T17:10:09.328Z,2.20
2023-08-22T17:12:33.059Z,1.98
2023-08-22T17:14:56.677Z,2.03
2023-08-22T17:17:20.335Z,2.00
2023-08-22T17:19:43.927Z,1.70
2023-08-22T17:22:08.974Z,1.83
2023-08-22T17:24:32.610Z,1.90
2023-08-22T17:26:56.309Z,2.05
2023-08-22T17:29:20.017Z,2.05
2023-08-22T17:31:43.676Z,1.85
2023-08-22T17:34:07.246Z,2.15
2023-08-22T17:36:30.879Z,2.00
2023-08-22T17:38:55.934Z,2.05
2023-08-22T17:41:19.937Z,2.03
2023-08-22T17:43:44.528Z,2.17
2023-08-22T17:46:09.039Z,2.40
2023-08-22T17:48:33.187Z,2.25
2023-08-22T17:50:57.512Z,2.42
2023-08-22T17:53:22.258Z,2.20
2023-08-22T17:55:47.362Z,2.67
2023-08-22T17:58:10.936Z,2.63
2023-08-22T18:00:34.668Z,2.58
2023-08-22T18:02:58.554Z,2.63
2023-08-22T18:05:22.503Z,2.38
2023-08-22T18:07:46.368Z,2.70
2023-08-22T18:10:11.321Z,2.60
2023-08-22T18:12:36.352Z,2.58
2023-08-22T18:15:00.009Z,2.55
2023-08-22T18:17:23.761Z,2.58
2023-08-22T18:19:47.487Z,2.65
2023-08-22T18:22:12.390Z,2.53
2023-08-22T18:24:36.132Z,2.85
2023-08-22T18:26:59.718Z,3.03
2023-08-22T18:29:24.730Z,3.13
2023-08-22T18:31:48.416Z,3.22
2023-08-22T18:34:12.336Z,3.03
2023-08-22T18:36:35.960Z,3.20
2023-08-22T18:38:59.638Z,3.05
2023-08-22T18:41:23.240Z,3.78
2023-08-22T18:43:47.315Z,4.70
2023-08-22T18:46:12.529Z,5.05
2023-08-22T18:48:36.239Z,5.20
2023-08-22T18:51:00.659Z,4.20
2023-08-22T18:53:24.348Z,5.25
2023-08-22T18:55:48.019Z,4.85
2023-08-22T18:58:11.666Z,5.20
2023-08-22T19:00:35.252Z,4.70
2023-08-22T19:03:00.406Z,4.40
2023-08-22T19:05:24.068Z,4.53
2023-08-22T19:07:48.032Z,4.55
2023-08-22T19:10:12.596Z,4.20
2023-08-22T19:12:36.261Z,4.82
2023-08-22T19:15:01.457Z,4.78
2023-08-22T19:17:25.168Z,5.05
2023-08-22T19:19:50.366Z,7.20
2023-08-22T19:22:14.064Z,7.07
2023-08-22T19:24:37.653Z,7.53
2023-08-22T19:27:02.031Z,7.22
2023-08-22T19:29:27.028Z,6.70
2023-08-22T19:31:58.645Z,7.38
2023-08-22T19:34:32.489Z,7.20
2023-08-22T19:36:57.463Z,6.20
2023-08-22T19:39:21.136Z,6.22
2023-08-22T19:41:44.734Z,6.22
2023-08-22T19:44:10.491Z,6.13
2023-08-22T19:46:34.539Z,5.60
2023-08-22T19:48:58.810Z,6.07
2023-08-22T19:51:22.460Z,5.57
2023-08-22T19:53:47.498Z,5.63
2023-08-22T19:56:11.120Z,5.03
2023-08-22T19:58:34.886Z,4.65
2023-08-22T20:00:59.210Z,5.13
2023-08-22T20:03:22.951Z,4.65
2023-08-22T20:05:48.253Z,4.53
2023-08-22T20:08:12.016Z,4.32
2023-08-22T20:10:37.018Z,4.38
2023-08-22T20:13:00.681Z,4.30
2023-08-22T20:15:24.327Z,4.53
2023-08-22T20:17:48.295Z,3.95
2023-08-22T20:20:12.911Z,4.57
2023-08-22T20:22:36.605Z,4.65
2023-08-22T20:25:01.454Z,4.07
2023-08-22T20:27:26.647Z,4.53
2023-08-22T20:29:50.223Z,4.32
2023-08-22T20:32:14.781Z,3.78
2023-08-22T20:34:38.467Z,4.63
2023-08-22T20:37:02.224Z,3.97
2023-08-22T20:39:29.149Z,4.05
2023-08-22T20:41:53.022Z,3.63
2023-08-22T20:44:17.990Z,3.65
2023-08-22T20:46:41.728Z,3.80
2023-08-22T20:49:06.054Z,4.05
2023-08-22T20:51:29.679Z,4.03
2023-08-22T20:53:53.274Z,3.95
2023-08-22T20:56:16.971Z,3.80
2023-08-22T20:58:40.626Z,3.90
2023-08-22T21:01:05.656Z,4.15
2023-08-22T21:03:29.342Z,4.43
2023-08-22T21:05:53.056Z,3.58
2023-08-22T21:08:16.700Z,3.97
2023-08-22T21:10:40.413Z,4.20
2023-08-22T21:13:04.058Z,4.40
2023-08-22T21:15:27.696Z,3.80
2023-08-22T21:17:53.173Z,4.03
2023-08-22T21:20:17.095Z,4.07
2023-08-22T21:22:40.855Z,3.80
2023-08-22T21:25:04.742Z,3.75
2023-08-22T21:27:28.330Z,4.05
2023-08-22T21:29:51.974Z,4.05
2023-08-22T21:32:15.808Z,4.00
2023-08-22T21:34:45.238Z,3.75
2023-08-22T21:37:08.900Z,4.28
2023-08-22T21:39:32.581Z,4.10
2023-08-22T21:41:56.198Z,4.40
2023-08-22T21:44:20.844Z,4.88
2023-08-22T21:46:44.493Z,4.50
2023-08-22T21:49:08.153Z,4.53
2023-08-22T21:51:33.134Z,4.38
2023-08-22T21:53:56.803Z,4.40
2023-08-22T21:56:22.362Z,4.60
2023-08-22T21:58:46.088Z,4.68
2023-08-22T22:01:14.002Z,4.30
2023-08-22T22:03:37.854Z,4.70
2023-08-22T22:06:03.969Z,4.57
2023-08-22T22:08:29.058Z,4.72
2023-08-22T22:10:53.955Z,4.63
2023-08-22T22:13:17.640Z,4.50
2023-08-22T22:15:41.306Z,4.78
2023-08-22T22:18:05.569Z,4.53
2023-08-22T22:20:29.232Z,4.43
2023-08-22T22:22:52.960Z,4.78
2023-08-22T22:25:18.082Z,4.65
2023-08-22T22:27:42.019Z,5.00
2023-08-22T22:30:06.788Z,4.60
2023-08-22T22:32:30.459Z,4.55
2023-08-22T22:34:54.068Z,4.40
2023-08-22T22:37:17.746Z,4.82
2023-08-22T22:39:41.539Z,4.70
2023-08-22T22:42:07.187Z,4.70
2023-08-22T22:44:30.835Z,5.45
2023-08-22T22:46:54.638Z,5.25
2023-08-22T22:49:18.320Z,4.70
2023-08-22T22:51:41.998Z,4.78
2023-08-22T22:54:06.014Z,4.93
2023-08-22T22:56:29.802Z,5.47
2023-08-22T22:58:54.783Z,4.65
2023-08-22T23:01:18.494Z,4.80
2023-08-22T23:03:42.244Z,4.70
2023-08-22T23:06:10.252Z,5.18
2023-08-22T23:08:42.042Z,4.90
2023-08-22T23:11:14.401Z,5.07
2023-08-22T23:13:46.675Z,4.90
2023-08-22T23:16:10.347Z,5.00
2023-08-22T23:18:34.050Z,4.90
2023-08-22T23:20:57.665Z,5.15
2023-08-22T23:23:21.307Z,4.97
2023-08-22T23:25:51.627Z,4.88
2023-08-22T23:28:15.285Z,5.07
2023-08-22T23:30:38.931Z,4.82
2023-08-22T23:33:02.639Z,4.95
2023-08-22T23:35:25.234Z,4.82
2023-08-22T23:37:49.277Z,4.85
2023-08-22T23:40:24.392Z,5.35
2023-08-22T23:42:49.954Z,4.95
2023-08-22T23:45:13.568Z,5.10
2023-08-22T23:47:37.239Z,5.03
2023-08-22T23:50:00.844Z,4.75
2023-08-22T23:52:24.593Z,4.50
2023-08-22T23:54:48.416Z,5.85
2023-08-22T23:57:12.116Z,5.25
2023-08-22T23:59:37.155Z,4.80
